sensor_id;sensor_type;location;lat;lon;timestamp;P1;durP1;ratioP1;P2;durP2;ratioP2
69083;SDS011;56185;48.526;9.044;2022-08-21T00:01:25;2.15;;;1.77;;
69083;SDS011;56185;48.526;9.044;2022-08-21T00:03:52;3.58;;;1.88;;
69083;SDS011;56185;48.526;9.044;2022-08-21T00:06:18;4.20;;;1.80;;
69083;SDS011;56185;48.526;9.044;2022-08-21T00:08:43;3.38;;;1.75;;
69083;SDS011;56185;48.526;9.044;2022-08-21T00:11:09;4.17;;;2.00;;
69083;SDS011;56185;48.526;9.044;2022-08-21T00:13:35;4.40;;;1.90;;
69083;SDS011;56185;48.526;9.044;2022-08-21T00:16:00;3.78;;;1.90;;
69083;SDS011;56185;48.526;9.044;2022-08-21T00:18:26;2.83;;;1.80;;
69083;SDS011;56185;48.526;9.044;2022-08-21T00:20:52;8.70;;;2.08;;
69083;SDS011;56185;48.526;9.044;2022-08-21T00:23:17;2.72;;;1.70;;
69083;SDS011;56185;48.526;9.044;2022-08-21T00:25:43;2.95;;;1.70;;
69083;SDS011;56185;48.526;9.044;2022-08-21T00:28:08;5.05;;;2.00;;
69083;SDS011;56185;48.526;9.044;2022-08-21T00:30:34;3.33;;;1.90;;
69083;SDS011;56185;48.526;9.044;2022-08-21T00:33:00;5.93;;;1.90;;
69083;SDS011;56185;48.526;9.044;2022-08-21T00:35:28;3.83;;;2.10;;
69083;SDS011;56185;48.526;9.044;2022-08-21T00:37:56;2.35;;;1.95;;
69083;SDS011;56185;48.526;9.044;2022-08-21T00:40:24;6.28;;;2.13;;
69083;SDS011;56185;48.526;9.044;2022-08-21T00:42:52;3.03;;;1.92;;
69083;SDS011;56185;48.526;9.044;2022-08-21T00:45:17;4.45;;;2.03;;
69083;SDS011;56185;48.526;9.044;2022-08-21T00:47:43;7.10;;;1.90;;
69083;SDS011;56185;48.526;9.044;2022-08-21T00:50:09;3.85;;;1.90;;
69083;SDS011;56185;48.526;9.044;2022-08-21T00:52:35;2.78;;;1.83;;
69083;SDS011;56185;48.526;9.044;2022-08-21T00:55:03;3.08;;;1.77;;
69083;SDS011;56185;48.526;9.044;2022-08-21T00:57:33;3.38;;;1.90;;
69083;SDS011;56185;48.526;9.044;2022-08-21T01:00:03;3.33;;;2.05;;
69083;SDS011;56185;48.526;9.044;2022-08-21T01:02:31;8.15;;;2.17;;
69083;SDS011;56185;48.526;9.044;2022-08-21T01:04:56;5.13;;;2.73;;
69083;SDS011;56185;48.526;9.044;2022-08-21T01:07:21;5.88;;;3.25;;
69083;SDS011;56185;48.526;9.044;2022-08-21T01:09:47;6.17;;;3.10;;
69083;SDS011;56185;48.526;9.044;2022-08-21T01:12:12;3.88;;;3.00;;
69083;SDS011;56185;48.526;9.044;2022-08-21T01:14:38;4.03;;;2.47;;
69083;SDS011;56185;48.526;9.044;2022-08-21T01:17:05;4.55;;;2.60;;
69083;SDS011;56185;48.526;9.044;2022-08-21T01:19:31;3.35;;;2.50;;
69083;SDS011;56185;48.526;9.044;2022-08-21T01:21:56;6.18;;;2.40;;
69083;SDS011;56185;48.526;9.044;2022-08-21T01:24:22;4.55;;;2.40;;
69083;SDS011;56185;48.526;9.044;2022-08-21T01:26:48;3.97;;;2.35;;
69083;SDS011;56185;48.526;9.044;2022-08-21T01:31:45;4.40;;;2.67;;
69083;SDS011;56185;48.526;9.044;2022-08-21T01:34:11;5.10;;;2.50;;
69083;SDS011;56185;48.526;9.044;2022-08-21T01:36:37;3.50;;;2.38;;
69083;SDS011;56185;48.526;9.044;2022-08-21T01:39:03;6.32;;;2.53;;
69083;SDS011;56185;48.526;9.044;2022-08-21T01:41:30;4.28;;;2.20;;
69083;SDS011;56185;48.526;9.044;2022-08-21T01:43:55;4.63;;;2.30;;
69083;SDS011;56185;48.526;9.044;2022-08-21T01:46:20;4.17;;;2.20;;
69083;SDS011;56185;48.526;9.044;2022-08-21T01:48:46;2.85;;;2.17;;
69083;SDS011;56185;48.526;9.044;2022-08-21T01:51:11;2.70;;;2.23;;
69083;SDS011;56185;48.526;9.044;2022-08-21T01:53:36;4.93;;;2.42;;
69083;SDS011;56185;48.526;9.044;2022-08-21T01:56:03;5.45;;;2.40;;
69083;SDS011;56185;48.526;9.044;2022-08-21T01:58:30;2.95;;;1.85;;
69083;SDS011;56185;48.526;9.044;2022-08-21T02:00:55;3.33;;;2.10;;
69083;SDS011;56185;48.526;9.044;2022-08-21T02:03:20;4.30;;;2.38;;
69083;SDS011;56185;48.526;9.044;2022-08-21T02:05:46;4.80;;;2.33;;
69083;SDS011;56185;48.526;9.044;2022-08-21T02:08:11;3.25;;;2.25;;
69083;SDS011;56185;48.526;9.044;2022-08-21T02:10:36;7.63;;;2.47;;
69083;SDS011;56185;48.526;9.044;2022-08-21T02:13:02;4.78;;;2.40;;
69083;SDS011;56185;48.526;9.044;2022-08-21T02:15:28;4.20;;;2.25;;
69083;SDS011;56185;48.526;9.044;2022-08-21T02:17:55;4.32;;;2.35;;
69083;SDS011;56185;48.526;9.044;2022-08-21T02:22:49;3.08;;;2.03;;
69083;SDS011;56185;48.526;9.044;2022-08-21T02:25:15;2.83;;;2.30;;
69083;SDS011;56185;48.526;9.044;2022-08-21T02:27:42;3.38;;;2.45;;
69083;SDS011;56185;48.526;9.044;2022-08-21T02:30:11;4.63;;;2.30;;
69083;SDS011;56185;48.526;9.044;2022-08-21T02:32:39;3.20;;;2.40;;
69083;SDS011;56185;48.526;9.044;2022-08-21T02:35:05;4.78;;;2.35;;
69083;SDS011;56185;48.526;9.044;2022-08-21T02:37:31;4.13;;;2.50;;
69083;SDS011;56185;48.526;9.044;2022-08-21T02:39:56;3.10;;;2.00;;
69083;SDS011;56185;48.526;9.044;2022-08-21T02:42:21;5.57;;;2.47;;
69083;SDS011;56185;48.526;9.044;2022-08-21T02:44:46;4.70;;;2.20;;
69083;SDS011;56185;48.526;9.044;2022-08-21T02:47:13;3.10;;;2.22;;
69083;SDS011;56185;48.526;9.044;2022-08-21T02:49:39;3.80;;;2.38;;
69083;SDS011;56185;48.526;9.044;2022-08-21T02:52:04;3.47;;;2.00;;
69083;SDS011;56185;48.526;9.044;2022-08-21T02:54:30;2.90;;;2.38;;
69083;SDS011;56185;48.526;9.044;2022-08-21T02:56:55;4.20;;;2.50;;
69083;SDS011;56185;48.526;9.044;2022-08-21T02:59:20;4.07;;;2.20;;
69083;SDS011;56185;48.526;9.044;2022-08-21T03:01:45;4.50;;;2.63;;
69083;SDS011;56185;48.526;9.044;2022-08-21T03:04:11;3.60;;;2.40;;
69083;SDS011;56185;48.526;9.044;2022-08-21T03:06:36;4.65;;;2.33;;
69083;SDS011;56185;48.526;9.044;2022-08-21T03:09:01;3.60;;;2.30;;
69083;SDS011;56185;48.526;9.044;2022-08-21T03:11:27;5.65;;;2.15;;
69083;SDS011;56185;48.526;9.044;2022-08-21T03:13:53;4.50;;;2.40;;
69083;SDS011;56185;48.526;9.044;2022-08-21T03:16:18;3.53;;;2.30;;
69083;SDS011;56185;48.526;9.044;2022-08-21T03:18:43;3.42;;;2.33;;
69083;SDS011;56185;48.526;9.044;2022-08-21T03:21:08;5.23;;;2.40;;
69083;SDS011;56185;48.526;9.044;2022-08-21T03:23:34;3.93;;;2.57;;
69083;SDS011;56185;48.526;9.044;2022-08-21T03:25:59;3.72;;;2.35;;
69083;SDS011;56185;48.526;9.044;2022-08-21T03:28:25;3.67;;;2.78;;
69083;SDS011;56185;48.526;9.044;2022-08-21T03:30:50;2.50;;;2.20;;
69083;SDS011;56185;48.526;9.044;2022-08-21T03:33:16;6.53;;;2.40;;
69083;SDS011;56185;48.526;9.044;2022-08-21T03:35:43;2.90;;;2.20;;
69083;SDS011;56185;48.526;9.044;2022-08-21T03:38:09;4.90;;;2.20;;
69083;SDS011;56185;48.526;9.044;2022-08-21T03:40:35;5.78;;;2.67;;
69083;SDS011;56185;48.526;9.044;2022-08-21T03:43:00;4.53;;;2.40;;
69083;SDS011;56185;48.526;9.044;2022-08-21T03:45:26;4.60;;;2.20;;
69083;SDS011;56185;48.526;9.044;2022-08-21T03:47:52;3.55;;;2.45;;
69083;SDS011;56185;48.526;9.044;2022-08-21T03:50:26;3.80;;;2.45;;
69083;SDS011;56185;48.526;9.044;2022-08-21T03:52:53;4.50;;;2.30;;
69083;SDS011;56185;48.526;9.044;2022-08-21T03:55:20;5.18;;;2.22;;
69083;SDS011;56185;48.526;9.044;2022-08-21T03:57:45;4.03;;;2.47;;
69083;SDS011;56185;48.526;9.044;2022-08-21T04:00:11;6.50;;;2.88;;
69083;SDS011;56185;48.526;9.044;2022-08-21T04:02:38;3.05;;;2.58;;
69083;SDS011;56185;48.526;9.044;2022-08-21T04:05:04;2.85;;;2.22;;
69083;SDS011;56185;48.526;9.044;2022-08-21T04:07:30;4.95;;;2.50;;
69083;SDS011;56185;48.526;9.044;2022-08-21T04:09:55;5.57;;;2.33;;
69083;SDS011;56185;48.526;9.044;2022-08-21T04:12:21;3.43;;;2.20;;
69083;SDS011;56185;48.526;9.044;2022-08-21T04:14:46;4.10;;;2.40;;
69083;SDS011;56185;48.526;9.044;2022-08-21T04:17:11;4.93;;;2.28;;
69083;SDS011;56185;48.526;9.044;2022-08-21T04:19:36;4.37;;;2.47;;
69083;SDS011;56185;48.526;9.044;2022-08-21T04:22:02;8.77;;;2.70;;
69083;SDS011;56185;48.526;9.044;2022-08-21T04:24:27;3.67;;;2.67;;
69083;SDS011;56185;48.526;9.044;2022-08-21T04:26:52;2.85;;;2.50;;
69083;SDS011;56185;48.526;9.044;2022-08-21T04:29:18;5.07;;;2.93;;
69083;SDS011;56185;48.526;9.044;2022-08-21T04:31:43;3.70;;;2.53;;
69083;SDS011;56185;48.526;9.044;2022-08-21T04:34:08;3.70;;;2.80;;
69083;SDS011;56185;48.526;9.044;2022-08-21T04:36:33;4.15;;;2.58;;
69083;SDS011;56185;48.526;9.044;2022-08-21T04:38:59;4.95;;;2.50;;
69083;SDS011;56185;48.526;9.044;2022-08-21T04:41:24;3.25;;;2.30;;
69083;SDS011;56185;48.526;9.044;2022-08-21T04:43:50;3.25;;;2.40;;
69083;SDS011;56185;48.526;9.044;2022-08-21T04:46:16;2.50;;;2.05;;
69083;SDS011;56185;48.526;9.044;2022-08-21T04:48:41;3.38;;;2.40;;
69083;SDS011;56185;48.526;9.044;2022-08-21T04:51:08;2.75;;;2.17;;
69083;SDS011;56185;48.526;9.044;2022-08-21T04:53:51;3.88;;;2.13;;
69083;SDS011;56185;48.526;9.044;2022-08-21T04:56:22;3.45;;;2.22;;
69083;SDS011;56185;48.526;9.044;2022-08-21T04:58:52;2.63;;;2.05;;
69083;SDS011;56185;48.526;9.044;2022-08-21T05:01:21;2.75;;;2.30;;
69083;SDS011;56185;48.526;9.044;2022-08-21T05:03:50;3.22;;;2.28;;
69083;SDS011;56185;48.526;9.044;2022-08-21T05:06:23;3.47;;;2.13;;
69083;SDS011;56185;48.526;9.044;2022-08-21T05:08:49;5.65;;;2.45;;
69083;SDS011;56185;48.526;9.044;2022-08-21T05:11:17;5.28;;;2.60;;
69083;SDS011;56185;48.526;9.044;2022-08-21T05:13:43;5.28;;;2.33;;
69083;SDS011;56185;48.526;9.044;2022-08-21T05:16:08;3.03;;;2.50;;
69083;SDS011;56185;48.526;9.044;2022-08-21T05:18:34;4.40;;;2.03;;
69083;SDS011;56185;48.526;9.044;2022-08-21T05:20:59;2.60;;;2.35;;
69083;SDS011;56185;48.526;9.044;2022-08-21T05:23:24;3.70;;;2.40;;
69083;SDS011;56185;48.526;9.044;2022-08-21T05:25:50;4.32;;;2.38;;
69083;SDS011;56185;48.526;9.044;2022-08-21T05:28:16;3.92;;;2.15;;
69083;SDS011;56185;48.526;9.044;2022-08-21T05:30:41;2.50;;;2.20;;
69083;SDS011;56185;48.526;9.044;2022-08-21T05:33:06;4.80;;;2.35;;
69083;SDS011;56185;48.526;9.044;2022-08-21T05:35:32;4.85;;;2.60;;
69083;SDS011;56185;48.526;9.044;2022-08-21T05:37:58;3.15;;;2.45;;
69083;SDS011;56185;48.526;9.044;2022-08-21T05:40:24;2.85;;;2.40;;
69083;SDS011;56185;48.526;9.044;2022-08-21T05:42:50;3.53;;;2.60;;
69083;SDS011;56185;48.526;9.044;2022-08-21T05:45:15;3.50;;;2.47;;
69083;SDS011;56185;48.526;9.044;2022-08-21T05:47:41;3.45;;;2.50;;
69083;SDS011;56185;48.526;9.044;2022-08-21T05:50:06;4.17;;;2.67;;
69083;SDS011;56185;48.526;9.044;2022-08-21T05:52:32;3.45;;;2.55;;
69083;SDS011;56185;48.526;9.044;2022-08-21T05:54:57;4.43;;;2.60;;
69083;SDS011;56185;48.526;9.044;2022-08-21T05:57:22;2.67;;;2.40;;
69083;SDS011;56185;48.526;9.044;2022-08-21T05:59:48;3.50;;;2.80;;
69083;SDS011;56185;48.526;9.044;2022-08-21T06:02:16;3.88;;;2.47;;
69083;SDS011;56185;48.526;9.044;2022-08-21T06:04:42;3.50;;;2.63;;
69083;SDS011;56185;48.526;9.044;2022-08-21T06:07:08;3.88;;;2.30;;
69083;SDS011;56185;48.526;9.044;2022-08-21T06:09:33;3.45;;;2.75;;
69083;SDS011;56185;48.526;9.044;2022-08-21T06:12:03;4.65;;;2.60;;
69083;SDS011;56185;48.526;9.044;2022-08-21T06:14:38;3.75;;;2.55;;
69083;SDS011;56185;48.526;9.044;2022-08-21T06:17:05;4.55;;;2.60;;
69083;SDS011;56185;48.526;9.044;2022-08-21T06:19:32;3.10;;;2.80;;
69083;SDS011;56185;48.526;9.044;2022-08-21T06:21:57;3.78;;;2.70;;
69083;SDS011;56185;48.526;9.044;2022-08-21T06:24:23;4.78;;;3.20;;
69083;SDS011;56185;48.526;9.044;2022-08-21T06:26:49;3.72;;;2.75;;
69083;SDS011;56185;48.526;9.044;2022-08-21T06:29:14;3.88;;;2.78;;
69083;SDS011;56185;48.526;9.044;2022-08-21T06:31:41;3.95;;;2.80;;
69083;SDS011;56185;48.526;9.044;2022-08-21T06:34:07;4.63;;;3.08;;
69083;SDS011;56185;48.526;9.044;2022-08-21T06:36:32;5.27;;;3.00;;
69083;SDS011;56185;48.526;9.044;2022-08-21T06:38:58;4.80;;;2.63;;
69083;SDS011;56185;48.526;9.044;2022-08-21T06:41:23;3.75;;;2.90;;
69083;SDS011;56185;48.526;9.044;2022-08-21T06:43:48;4.53;;;3.00;;
69083;SDS011;56185;48.526;9.044;2022-08-21T06:46:13;4.72;;;3.40;;
69083;SDS011;56185;48.526;9.044;2022-08-21T06:48:39;3.95;;;3.00;;
69083;SDS011;56185;48.526;9.044;2022-08-21T06:51:04;4.17;;;3.50;;
69083;SDS011;56185;48.526;9.044;2022-08-21T06:53:29;4.53;;;3.20;;
69083;SDS011;56185;48.526;9.044;2022-08-21T06:55:55;6.00;;;3.43;;
69083;SDS011;56185;48.526;9.044;2022-08-21T06:58:20;6.13;;;3.50;;
69083;SDS011;56185;48.526;9.044;2022-08-21T07:00:47;4.83;;;3.33;;
69083;SDS011;56185;48.526;9.044;2022-08-21T07:03:24;5.97;;;3.60;;
69083;SDS011;56185;48.526;9.044;2022-08-21T07:05:52;6.15;;;2.78;;
69083;SDS011;56185;48.526;9.044;2022-08-21T07:08:18;4.05;;;2.72;;
69083;SDS011;56185;48.526;9.044;2022-08-21T07:10:43;3.65;;;2.67;;
69083;SDS011;56185;48.526;9.044;2022-08-21T07:13:09;4.57;;;2.42;;
69083;SDS011;56185;48.526;9.044;2022-08-21T07:15:34;4.20;;;2.63;;
69083;SDS011;56185;48.526;9.044;2022-08-21T07:18:00;7.43;;;3.10;;
69083;SDS011;56185;48.526;9.044;2022-08-21T07:20:29;4.13;;;2.80;;
69083;SDS011;56185;48.526;9.044;2022-08-21T07:22:56;4.85;;;2.72;;
69083;SDS011;56185;48.526;9.044;2022-08-21T07:25:24;3.97;;;2.50;;
69083;SDS011;56185;48.526;9.044;2022-08-21T07:27:49;3.28;;;2.50;;
69083;SDS011;56185;48.526;9.044;2022-08-21T07:30:14;4.00;;;2.70;;
69083;SDS011;56185;48.526;9.044;2022-08-21T07:32:40;4.63;;;2.85;;
69083;SDS011;56185;48.526;9.044;2022-08-21T07:35:05;8.02;;;2.60;;
69083;SDS011;56185;48.526;9.044;2022-08-21T07:37:31;3.20;;;2.53;;
69083;SDS011;56185;48.526;9.044;2022-08-21T07:39:56;3.60;;;2.55;;
69083;SDS011;56185;48.526;9.044;2022-08-21T07:42:21;3.28;;;2.65;;
69083;SDS011;56185;48.526;9.044;2022-08-21T07:44:46;4.77;;;2.60;;
69083;SDS011;56185;48.526;9.044;2022-08-21T07:47:12;3.70;;;2.60;;
69083;SDS011;56185;48.526;9.044;2022-08-21T07:49:37;3.60;;;2.47;;
69083;SDS011;56185;48.526;9.044;2022-08-21T07:52:02;3.88;;;2.63;;
69083;SDS011;56185;48.526;9.044;2022-08-21T07:54:28;4.82;;;2.40;;
69083;SDS011;56185;48.526;9.044;2022-08-21T07:56:53;5.03;;;2.37;;
69083;SDS011;56185;48.526;9.044;2022-08-21T07:59:18;5.60;;;2.65;;
69083;SDS011;56185;48.526;9.044;2022-08-21T08:01:44;4.40;;;2.15;;
69083;SDS011;56185;48.526;9.044;2022-08-21T08:04:09;6.22;;;2.67;;
69083;SDS011;56185;48.526;9.044;2022-08-21T08:06:34;2.70;;;2.10;;
69083;SDS011;56185;48.526;9.044;2022-08-21T08:08:59;8.50;;;2.63;;
69083;SDS011;56185;48.526;9.044;2022-08-21T08:11:25;4.80;;;2.57;;
69083;SDS011;56185;48.526;9.044;2022-08-21T08:13:50;4.20;;;2.37;;
69083;SDS011;56185;48.526;9.044;2022-08-21T08:16:16;5.32;;;2.60;;
69083;SDS011;56185;48.526;9.044;2022-08-21T08:18:42;5.88;;;2.30;;
69083;SDS011;56185;48.526;9.044;2022-08-21T08:21:08;6.38;;;2.20;;
69083;SDS011;56185;48.526;9.044;2022-08-21T08:23:34;5.90;;;2.70;;
69083;SDS011;56185;48.526;9.044;2022-08-21T08:26:00;3.50;;;2.08;;
69083;SDS011;56185;48.526;9.044;2022-08-21T08:28:25;6.43;;;2.15;;
69083;SDS011;56185;48.526;9.044;2022-08-21T08:30:51;2.97;;;2.17;;
69083;SDS011;56185;48.526;9.044;2022-08-21T08:33:16;4.17;;;2.57;;
69083;SDS011;56185;48.526;9.044;2022-08-21T08:35:46;5.45;;;2.40;;
69083;SDS011;56185;48.526;9.044;2022-08-21T08:38:14;7.53;;;2.47;;
69083;SDS011;56185;48.526;9.044;2022-08-21T08:41:22;5.18;;;2.47;;
69083;SDS011;56185;48.526;9.044;2022-08-21T08:43:44;5.82;;;2.50;;
69083;SDS011;56185;48.526;9.044;2022-08-21T08:46:19;3.95;;;2.47;;
69083;SDS011;56185;48.526;9.044;2022-08-21T08:48:52;7.03;;;2.90;;
69083;SDS011;56185;48.526;9.044;2022-08-21T08:54:17;5.70;;;2.42;;
69083;SDS011;56185;48.526;9.044;2022-08-21T08:56:47;4.82;;;2.33;;
69083;SDS011;56185;48.526;9.044;2022-08-21T08:59:20;7.37;;;2.90;;
69083;SDS011;56185;48.526;9.044;2022-08-21T09:01:49;4.15;;;2.40;;
69083;SDS011;56185;48.526;9.044;2022-08-21T09:04:16;7.13;;;2.40;;
69083;SDS011;56185;48.526;9.044;2022-08-21T09:12:29;5.78;;;2.65;;
69083;SDS011;56185;48.526;9.044;2022-08-21T09:20:40;5.70;;;2.30;;
69083;SDS011;56185;48.526;9.044;2022-08-21T09:25:54;5.97;;;2.42;;
69083;SDS011;56185;48.526;9.044;2022-08-21T09:28:25;5.32;;;2.30;;
69083;SDS011;56185;48.526;9.044;2022-08-21T09:30:51;6.60;;;2.33;;
69083;SDS011;56185;48.526;9.044;2022-08-21T09:33:19;5.25;;;2.35;;
69083;SDS011;56185;48.526;9.044;2022-08-21T09:35:54;6.47;;;2.33;;
69083;SDS011;56185;48.526;9.044;2022-08-21T09:38:25;6.07;;;2.40;;
69083;SDS011;56185;48.526;9.044;2022-08-21T09:40:58;5.47;;;2.47;;
69083;SDS011;56185;48.526;9.044;2022-08-21T09:43:26;5.22;;;2.20;;
69083;SDS011;56185;48.526;9.044;2022-08-21T09:46:03;7.15;;;2.58;;
69083;SDS011;56185;48.526;9.044;2022-08-21T09:48:40;6.50;;;2.67;;
69083;SDS011;56185;48.526;9.044;2022-08-21T09:51:12;4.88;;;2.50;;
69083;SDS011;56185;48.526;9.044;2022-08-21T09:53:43;6.05;;;2.55;;
69083;SDS011;56185;48.526;9.044;2022-08-21T09:56:21;4.95;;;2.30;;
69083;SDS011;56185;48.526;9.044;2022-08-21T09:58:51;4.75;;;2.10;;
69083;SDS011;56185;48.526;9.044;2022-08-21T10:01:18;4.93;;;2.17;;
69083;SDS011;56185;48.526;9.044;2022-08-21T10:03:45;5.57;;;2.42;;
69083;SDS011;56185;48.526;9.044;2022-08-21T10:06:20;4.07;;;2.17;;
69083;SDS011;56185;48.526;9.044;2022-08-21T10:08:48;4.28;;;2.08;;
69083;SDS011;56185;48.526;9.044;2022-08-21T10:11:14;5.50;;;2.40;;
69083;SDS011;56185;48.526;9.044;2022-08-21T10:13:44;4.90;;;2.17;;
69083;SDS011;56185;48.526;9.044;2022-08-21T10:16:40;4.55;;;2.05;;
69083;SDS011;56185;48.526;9.044;2022-08-21T10:19:20;6.10;;;2.30;;
69083;SDS011;56185;48.526;9.044;2022-08-21T10:29:39;3.90;;;2.13;;
69083;SDS011;56185;48.526;9.044;2022-08-21T10:41:07;4.30;;;1.83;;
69083;SDS011;56185;48.526;9.044;2022-08-21T10:49:45;5.65;;;1.95;;
69083;SDS011;56185;48.526;9.044;2022-08-21T10:57:38;5.15;;;1.80;;
69083;SDS011;56185;48.526;9.044;2022-08-21T11:00:11;4.05;;;1.90;;
69083;SDS011;56185;48.526;9.044;2022-08-21T11:08:23;3.67;;;1.90;;
69083;SDS011;56185;48.526;9.044;2022-08-21T11:10:55;3.85;;;2.08;;
69083;SDS011;56185;48.526;9.044;2022-08-21T11:13:45;5.82;;;2.17;;
69083;SDS011;56185;48.526;9.044;2022-08-21T11:19:13;6.65;;;1.95;;
69083;SDS011;56185;48.526;9.044;2022-08-21T11:21:48;3.20;;;1.70;;
69083;SDS011;56185;48.526;9.044;2022-08-21T11:24:29;4.40;;;1.95;;
69083;SDS011;56185;48.526;9.044;2022-08-21T11:29:29;3.47;;;1.73;;
69083;SDS011;56185;48.526;9.044;2022-08-21T11:32:15;4.35;;;1.98;;
69083;SDS011;56185;48.526;9.044;2022-08-21T11:45:51;3.35;;;1.90;;
69083;SDS011;56185;48.526;9.044;2022-08-21T11:51:16;4.50;;;1.70;;
69083;SDS011;56185;48.526;9.044;2022-08-21T11:53:49;4.55;;;1.63;;
69083;SDS011;56185;48.526;9.044;2022-08-21T11:56:24;2.90;;;1.80;;
69083;SDS011;56185;48.526;9.044;2022-08-21T11:58:55;4.55;;;1.50;;
69083;SDS011;56185;48.526;9.044;2022-08-21T12:01:25;3.80;;;1.90;;
69083;SDS011;56185;48.526;9.044;2022-08-21T12:04:06;4.60;;;1.90;;
69083;SDS011;56185;48.526;9.044;2022-08-21T12:09:06;3.08;;;1.70;;
69083;SDS011;56185;48.526;9.044;2022-08-21T12:12:06;5.07;;;1.77;;
69083;SDS011;56185;48.526;9.044;2022-08-21T12:14:48;3.53;;;1.70;;
69083;SDS011;56185;48.526;9.044;2022-08-21T12:17:34;3.60;;;1.70;;
69083;SDS011;56185;48.526;9.044;2022-08-21T12:20:14;3.72;;;1.70;;
69083;SDS011;56185;48.526;9.044;2022-08-21T12:25:38;3.60;;;1.77;;
69083;SDS011;56185;48.526;9.044;2022-08-21T12:28:11;3.47;;;1.50;;
69083;SDS011;56185;48.526;9.044;2022-08-21T12:30:43;3.08;;;1.58;;
69083;SDS011;56185;48.526;9.044;2022-08-21T12:36:30;5.72;;;1.80;;
69083;SDS011;56185;48.526;9.044;2022-08-21T12:39:03;3.08;;;1.60;;
69083;SDS011;56185;48.526;9.044;2022-08-21T12:44:26;4.03;;;1.77;;
69083;SDS011;56185;48.526;9.044;2022-08-21T12:46:58;3.60;;;1.65;;
69083;SDS011;56185;48.526;9.044;2022-08-21T12:49:32;3.25;;;1.55;;
69083;SDS011;56185;48.526;9.044;2022-08-21T12:52:19;3.03;;;1.63;;
69083;SDS011;56185;48.526;9.044;2022-08-21T12:54:47;4.05;;;1.70;;
69083;SDS011;56185;48.526;9.044;2022-08-21T12:57:23;7.07;;;1.95;;
69083;SDS011;56185;48.526;9.044;2022-08-21T12:59:51;5.20;;;1.88;;
69083;SDS011;56185;48.526;9.044;2022-08-21T13:02:30;3.53;;;1.85;;
69083;SDS011;56185;48.526;9.044;2022-08-21T13:04:58;3.50;;;1.67;;
69083;SDS011;56185;48.526;9.044;2022-08-21T13:07:29;4.80;;;1.80;;
69083;SDS011;56185;48.526;9.044;2022-08-21T13:09:59;4.13;;;1.90;;
69083;SDS011;56185;48.526;9.044;2022-08-21T13:12:31;4.10;;;1.70;;
69083;SDS011;56185;48.526;9.044;2022-08-21T13:15:00;3.80;;;1.85;;
69083;SDS011;56185;48.526;9.044;2022-08-21T13:17:29;4.15;;;1.85;;
69083;SDS011;56185;48.526;9.044;2022-08-21T13:20:06;3.78;;;1.83;;
69083;SDS011;56185;48.526;9.044;2022-08-21T13:22:39;3.50;;;1.63;;
69083;SDS011;56185;48.526;9.044;2022-08-21T13:25:09;4.03;;;1.40;;
69083;SDS011;56185;48.526;9.044;2022-08-21T13:27:39;3.50;;;1.45;;
69083;SDS011;56185;48.526;9.044;2022-08-21T13:30:06;3.10;;;1.58;;
69083;SDS011;56185;48.526;9.044;2022-08-21T13:32:44;3.70;;;1.42;;
69083;SDS011;56185;48.526;9.044;2022-08-21T13:35:13;4.07;;;1.90;;
69083;SDS011;56185;48.526;9.044;2022-08-21T13:37:40;3.25;;;1.75;;
69083;SDS011;56185;48.526;9.044;2022-08-21T13:40:07;3.90;;;1.40;;
69083;SDS011;56185;48.526;9.044;2022-08-21T13:42:37;3.60;;;1.80;;
69083;SDS011;56185;48.526;9.044;2022-08-21T13:45:10;4.30;;;1.60;;
69083;SDS011;56185;48.526;9.044;2022-08-21T13:47:38;2.13;;;1.30;;
69083;SDS011;56185;48.526;9.044;2022-08-21T13:50:04;3.80;;;1.75;;
69083;SDS011;56185;48.526;9.044;2022-08-21T13:52:30;3.63;;;1.52;;
69083;SDS011;56185;48.526;9.044;2022-08-21T13:54:56;5.03;;;2.10;;
69083;SDS011;56185;48.526;9.044;2022-08-21T13:57:28;4.63;;;1.65;;
69083;SDS011;56185;48.526;9.044;2022-08-21T14:02:46;3.17;;;1.55;;
69083;SDS011;56185;48.526;9.044;2022-08-21T14:05:16;3.28;;;1.52;;
69083;SDS011;56185;48.526;9.044;2022-08-21T14:07:45;4.07;;;1.73;;
69083;SDS011;56185;48.526;9.044;2022-08-21T14:12:46;3.00;;;1.93;;
69083;SDS011;56185;48.526;9.044;2022-08-21T14:15:15;2.17;;;1.40;;
69083;SDS011;56185;48.526;9.044;2022-08-21T14:17:42;3.63;;;1.58;;
69083;SDS011;56185;48.526;9.044;2022-08-21T14:20:10;2.83;;;1.40;;
69083;SDS011;56185;48.526;9.044;2022-08-21T14:22:49;3.95;;;1.60;;
69083;SDS011;56185;48.526;9.044;2022-08-21T14:25:27;2.40;;;1.40;;
69083;SDS011;56185;48.526;9.044;2022-08-21T14:28:08;2.80;;;1.50;;
69083;SDS011;56185;48.526;9.044;2022-08-21T14:30:48;4.82;;;1.60;;
69083;SDS011;56185;48.526;9.044;2022-08-21T14:33:18;3.93;;;1.70;;
69083;SDS011;56185;48.526;9.044;2022-08-21T14:35:53;3.22;;;1.70;;
69083;SDS011;56185;48.526;9.044;2022-08-21T14:38:20;2.97;;;1.48;;
69083;SDS011;56185;48.526;9.044;2022-08-21T14:40:51;3.38;;;1.70;;
69083;SDS011;56185;48.526;9.044;2022-08-21T14:43:18;2.83;;;1.52;;
69083;SDS011;56185;48.526;9.044;2022-08-21T14:45:44;2.85;;;1.60;;
69083;SDS011;56185;48.526;9.044;2022-08-21T14:48:10;3.28;;;1.67;;
69083;SDS011;56185;48.526;9.044;2022-08-21T14:50:35;3.85;;;1.60;;
69083;SDS011;56185;48.526;9.044;2022-08-21T14:53:01;3.13;;;1.50;;
69083;SDS011;56185;48.526;9.044;2022-08-21T14:55:27;4.28;;;1.73;;
69083;SDS011;56185;48.526;9.044;2022-08-21T14:57:52;3.75;;;1.45;;
69083;SDS011;56185;48.526;9.044;2022-08-21T15:00:21;3.35;;;1.58;;
69083;SDS011;56185;48.526;9.044;2022-08-21T15:02:49;3.15;;;1.75;;
69083;SDS011;56185;48.526;9.044;2022-08-21T15:05:15;3.08;;;1.60;;
69083;SDS011;56185;48.526;9.044;2022-08-21T15:07:41;2.38;;;1.58;;
69083;SDS011;56185;48.526;9.044;2022-08-21T15:10:06;2.63;;;1.60;;
69083;SDS011;56185;48.526;9.044;2022-08-21T15:12:34;3.03;;;1.75;;
69083;SDS011;56185;48.526;9.044;2022-08-21T15:14:59;4.60;;;1.70;;
69083;SDS011;56185;48.526;9.044;2022-08-21T15:17:25;3.00;;;1.52;;
69083;SDS011;56185;48.526;9.044;2022-08-21T15:19:50;3.60;;;1.70;;
69083;SDS011;56185;48.526;9.044;2022-08-21T15:22:16;3.63;;;1.70;;
69083;SDS011;56185;48.526;9.044;2022-08-21T15:24:41;2.47;;;1.60;;
69083;SDS011;56185;48.526;9.044;2022-08-21T15:27:07;3.00;;;1.60;;
69083;SDS011;56185;48.526;9.044;2022-08-21T15:29:34;4.28;;;1.70;;
69083;SDS011;56185;48.526;9.044;2022-08-21T15:32:01;2.90;;;1.60;;
69083;SDS011;56185;48.526;9.044;2022-08-21T15:34:42;4.93;;;1.80;;
69083;SDS011;56185;48.526;9.044;2022-08-21T15:37:07;4.70;;;1.70;;
69083;SDS011;56185;48.526;9.044;2022-08-21T15:39:33;2.80;;;1.52;;
69083;SDS011;56185;48.526;9.044;2022-08-21T15:41:59;2.67;;;1.63;;
69083;SDS011;56185;48.526;9.044;2022-08-21T15:44:25;2.67;;;1.65;;
69083;SDS011;56185;48.526;9.044;2022-08-21T15:46:53;3.35;;;1.60;;
69083;SDS011;56185;48.526;9.044;2022-08-21T15:49:18;3.17;;;1.70;;
69083;SDS011;56185;48.526;9.044;2022-08-21T15:51:43;3.13;;;1.70;;
69083;SDS011;56185;48.526;9.044;2022-08-21T15:54:08;4.00;;;1.60;;
69083;SDS011;56185;48.526;9.044;2022-08-21T15:56:35;3.10;;;1.60;;
69083;SDS011;56185;48.526;9.044;2022-08-21T15:59:05;4.53;;;1.60;;
69083;SDS011;56185;48.526;9.044;2022-08-21T16:01:34;3.78;;;1.67;;
69083;SDS011;56185;48.526;9.044;2022-08-21T16:04:01;4.15;;;1.58;;
69083;SDS011;56185;48.526;9.044;2022-08-21T16:06:27;2.33;;;1.63;;
69083;SDS011;56185;48.526;9.044;2022-08-21T16:08:52;3.50;;;1.73;;
69083;SDS011;56185;48.526;9.044;2022-08-21T16:11:18;2.95;;;1.70;;
69083;SDS011;56185;48.526;9.044;2022-08-21T16:13:44;3.60;;;1.60;;
69083;SDS011;56185;48.526;9.044;2022-08-21T16:16:10;3.40;;;1.90;;
69083;SDS011;56185;48.526;9.044;2022-08-21T16:18:37;4.18;;;1.70;;
69083;SDS011;56185;48.526;9.044;2022-08-21T16:21:04;4.00;;;1.88;;
69083;SDS011;56185;48.526;9.044;2022-08-21T16:23:29;3.53;;;1.83;;
69083;SDS011;56185;48.526;9.044;2022-08-21T16:25:56;2.38;;;1.65;;